createdAt,value
2023-03-31T00:01:42.951Z,10.00
2023-03-31T00:04:13.350Z,9.96
2023-03-31T00:06:42.168Z,9.93
2023-03-31T00:09:12.898Z,9.89
2023-03-31T00:11:40.485Z,9.85
2023-03-31T00:14:08.700Z,9.80
2023-03-31T00:16:36.895Z,9.77
2023-03-31T00:19:04.307Z,9.73
2023-03-31T00:21:34.323Z,9.67
2023-03-31T00:24:07.758Z,9.63
2023-03-31T00:26:35.440Z,9.56
2023-03-31T00:29:07.197Z,9.53
2023-03-31T00:31:34.080Z,9.50
2023-03-31T00:34:00.689Z,9.49
2023-03-31T00:36:27.613Z,9.50
2023-03-31T00:39:08.699Z,9.52
2023-03-31T00:41:37.612Z,9.52
2023-03-31T00:44:19.062Z,9.49
2023-03-31T00:46:56.386Z,9.52
2023-03-31T00:49:40.556Z,9.51
2023-03-31T00:52:17.878Z,9.50
2023-03-31T00:54:47.559Z,9.45
2023-03-31T00:57:15.492Z,9.46
2023-03-31T00:59:52.500Z,9.45
2023-03-31T01:02:25.532Z,9.43
2023-03-31T01:04:59.259Z,9.41
2023-03-31T01:07:33.559Z,9.45
2023-03-31T01:10:02.240Z,9.44
2023-03-31T01:12:28.847Z,9.43
2023-03-31T01:14:55.602Z,9.42
2023-03-31T01:17:22.838Z,9.43
2023-03-31T01:20:19.201Z,9.42
2023-03-31T01:23:01.197Z,9.39
2023-03-31T01:25:47.885Z,9.39
2023-03-31T01:28:37.435Z,9.43
2023-03-31T01:31:22.536Z,9.46
2023-03-31T01:34:23.416Z,9.49
2023-03-31T01:37:14.667Z,9.52
2023-03-31T01:39:57.685Z,9.48
2023-03-31T01:42:37.209Z,9.56
2023-03-31T01:45:12.331Z,9.61
2023-03-31T01:47:54.461Z,9.65
2023-03-31T01:50:43.909Z,9.69
2023-03-31T01:53:20.361Z,9.69
2023-03-31T01:55:58.643Z,9.65
2023-03-31T01:58:32.430Z,9.63
2023-03-31T02:01:05.815Z,9.72
2023-03-31T02:03:37.971Z,9.72
2023-03-31T02:06:14.855Z,9.76
2023-03-31T02:08:49.575Z,9.83
2023-03-31T02:11:17.120Z,9.78
2023-03-31T02:13:46.847Z,9.84
2023-03-31T02:16:21.899Z,9.87
2023-03-31T02:18:52.895Z,9.91
2023-03-31T02:21:20.598Z,9.93
2023-03-31T02:23:49.457Z,9.97
2023-03-31T02:26:21.488Z,10.00
2023-03-31T02:28:48.157Z,10.01
2023-03-31T02:31:33.206Z,10.02
2023-03-31T02:33:59.865Z,9.94
2023-03-31T02:36:26.369Z,9.98
2023-03-31T02:39:01.998Z,9.98
2023-03-31T02:41:28.500Z,9.96
2023-03-31T02:43:56.637Z,9.99
2023-03-31T02:46:24.428Z,9.99
2023-03-31T02:48:55.882Z,10.00
2023-03-31T02:51:54.461Z,10.00
2023-03-31T02:54:29.924Z,9.97
2023-03-31T02:57:08.380Z,9.94
2023-03-31T02:59:44.072Z,9.93
2023-03-31T03:02:25.655Z,9.93
2023-03-31T03:05:03.009Z,9.94
2023-03-31T03:07:45.524Z,9.93
2023-03-31T03:10:20.952Z,9.93
2023-03-31T03:13:22.776Z,9.91
2023-03-31T03:16:03.649Z,9.89
2023-03-31T03:18:31.019Z,9.84
2023-03-31T03:20:57.568Z,9.82
2023-03-31T03:23:24.028Z,9.83
2023-03-31T03:25:51.090Z,9.85
2023-03-31T03:28:17.550Z,9.89
2023-03-31T03:30:43.975Z,9.90
2023-03-31T03:33:11.029Z,9.89
2023-03-31T03:35:37.468Z,9.91
2023-03-31T03:38:03.908Z,9.90
2023-03-31T03:40:30.652Z,9.88
2023-03-31T03:42:57.019Z,9.84
2023-03-31T03:45:23.460Z,9.77
2023-03-31T03:47:49.931Z,9.71
2023-03-31T03:50:16.698Z,9.67
2023-03-31T03:52:43.430Z,9.63
2023-03-31T03:55:12.143Z,9.60
2023-03-31T03:57:38.632Z,9.57
2023-03-31T04:00:12.179Z,9.47
2023-03-31T04:02:39.733Z,9.47
2023-03-31T04:05:06.620Z,9.44
2023-03-31T04:07:33.160Z,9.38
2023-03-31T04:09:59.576Z,9.33
2023-03-31T04:12:26.055Z,9.31
2023-03-31T04:14:52.458Z,9.24
2023-03-31T04:17:18.875Z,9.17
2023-03-31T04:19:50.610Z,9.11
2023-03-31T04:22:20.557Z,9.09
2023-03-31T04:24:52.617Z,9.05
2023-03-31T04:27:21.027Z,8.98
2023-03-31T04:29:54.663Z,8.88
2023-03-31T04:32:22.008Z,8.82
2023-03-31T04:34:50.529Z,8.78
2023-03-31T04:37:17.465Z,8.75
2023-03-31T04:39:46.668Z,8.75
2023-03-31T04:42:13.428Z,8.76
2023-03-31T04:44:39.896Z,8.73
2023-03-31T04:47:06.962Z,8.69
2023-03-31T04:49:33.607Z,8.67
2023-03-31T04:52:00.220Z,8.65
2023-03-31T04:54:26.585Z,8.64
2023-03-31T04:56:53.106Z,8.66
2023-03-31T04:59:19.601Z,8.66
2023-03-31T05:01:46.228Z,8.65
2023-03-31T05:04:12.813Z,8.64
2023-03-31T05:06:39.305Z,8.66
2023-03-31T05:09:06.470Z,8.67
2023-03-31T05:11:32.883Z,8.69
2023-03-31T05:13:59.280Z,8.69
2023-03-31T05:16:25.742Z,8.69
2023-03-31T05:18:52.124Z,8.69
2023-03-31T05:21:20.727Z,8.71
2023-03-31T05:23:48.051Z,8.70
2023-03-31T05:26:15.381Z,8.74
2023-03-31T05:28:42.154Z,8.78
2023-03-31T05:31:09.340Z,8.79
2023-03-31T05:33:40.217Z,8.80
2023-03-31T05:36:09.407Z,8.78
2023-03-31T05:38:36.467Z,8.79
2023-03-31T05:41:03.445Z,8.81
2023-03-31T05:43:29.888Z,8.84
2023-03-31T05:45:56.300Z,8.86
2023-03-31T05:48:22.754Z,8.90
2023-03-31T05:50:49.163Z,8.94
2023-03-31T05:53:15.841Z,8.95
2023-03-31T05:55:42.444Z,8.97
2023-03-31T05:58:08.818Z,9.00
2023-03-31T06:00:36.326Z,8.98
2023-03-31T06:03:02.903Z,8.95
2023-03-31T06:05:31.128Z,8.98
2023-03-31T06:07:57.777Z,9.00
2023-03-31T06:10:24.219Z,9.05
2023-03-31T06:12:50.844Z,9.08
2023-03-31T06:15:17.746Z,9.09
2023-03-31T06:17:44.265Z,9.12
2023-03-31T06:20:26.629Z,9.14
2023-03-31T06:22:54.635Z,9.15
2023-03-31T06:25:21.707Z,9.17
2023-03-31T06:27:48.392Z,9.18
2023-03-31T06:30:15.096Z,9.20
2023-03-31T06:32:41.559Z,9.24
2023-03-31T06:35:08.466Z,9.24
2023-03-31T06:37:34.888Z,9.24
2023-03-31T06:40:01.446Z,9.20
2023-03-31T06:42:27.853Z,9.21
2023-03-31T06:44:55.850Z,9.24
2023-03-31T06:47:22.350Z,9.24
2023-03-31T06:49:48.824Z,9.26
2023-03-31T06:52:15.373Z,9.27
2023-03-31T06:54:42.285Z,9.29
2023-03-31T06:57:09.058Z,9.27
2023-03-31T06:59:35.637Z,9.29
2023-03-31T07:02:02.257Z,9.29
2023-03-31T07:04:28.789Z,9.35
2023-03-31T07:06:55.777Z,9.36
2023-03-31T07:09:23.454Z,9.38
2023-03-31T07:11:50.041Z,9.40
2023-03-31T07:14:16.525Z,9.42
2023-03-31T07:16:43.250Z,9.41
2023-03-31T07:19:10.953Z,9.38
2023-03-31T07:21:37.791Z,9.39
2023-03-31T07:24:04.452Z,9.37
2023-03-31T07:26:31.063Z,9.39
2023-03-31T07:28:57.848Z,9.39
2023-03-31T07:31:24.335Z,9.39
2023-03-31T07:33:51.062Z,9.38
2023-03-31T07:36:17.766Z,9.35
2023-03-31T07:38:46.855Z,9.31
2023-03-31T07:41:15.606Z,9.30
2023-03-31T07:43:42.090Z,9.24
2023-03-31T07:46:18.274Z,9.22
2023-03-31T07:48:46.599Z,9.22
2023-03-31T07:51:15.380Z,9.22
2023-03-31T07:53:42.379Z,9.21
2023-03-31T07:56:08.915Z,9.17
2023-03-31T07:58:35.484Z,9.23
2023-03-31T08:01:02.079Z,9.24
2023-03-31T08:03:28.902Z,9.34
2023-03-31T08:05:55.788Z,9.38
2023-03-31T08:08:22.360Z,9.47
2023-03-31T08:10:49.371Z,9.51
2023-03-31T08:13:15.892Z,9.56
2023-03-31T08:15:42.492Z,9.57
2023-03-31T08:18:08.972Z,9.61
2023-03-31T08:20:35.696Z,9.67
2023-03-31T08:23:02.250Z,9.73
2023-03-31T08:25:28.755Z,9.80
2023-03-31T08:27:56.142Z,9.88
2023-03-31T08:30:22.848Z,9.93
2023-03-31T08:32:49.520Z,10.06
2023-03-31T08:35:16.079Z,10.18
2023-03-31T08:37:42.708Z,10.22
2023-03-31T08:40:17.059Z,10.31
2023-03-31T08:42:50.460Z,10.28
2023-03-31T08:45:16.832Z,10.23
2023-03-31T08:47:44.696Z,10.21
2023-03-31T08:50:18.845Z,10.36
2023-03-31T08:52:54.452Z,10.54
2023-03-31T08:55:34.386Z,10.81
2023-03-31T08:58:14.585Z,11.05
2023-03-31T09:01:04.176Z,11.28
2023-03-31T09:03:55.650Z,11.48
2023-03-31T09:06:28.512Z,11.66
2023-03-31T09:09:01.746Z,11.88
2023-03-31T09:11:35.025Z,12.11
2023-03-31T09:14:18.210Z,12.26
2023-03-31T09:16:51.218Z,12.34
2023-03-31T09:19:33.286Z,12.45
2023-03-31T09:22:01.588Z,12.56
2023-03-31T09:24:32.950Z,12.56
2023-03-31T09:27:06.908Z,12.52
2023-03-31T09:29:43.879Z,12.51
2023-03-31T09:32:24.877Z,12.61
2023-03-31T09:34:57.187Z,12.59
2023-03-31T09:37:28.043Z,12.64
2023-03-31T09:39:54.448Z,12.74
2023-03-31T09:42:20.867Z,12.89
2023-03-31T09:44:50.043Z,12.97
2023-03-31T09:47:42.671Z,13.08
2023-03-31T09:50:11.079Z,13.13
2023-03-31T09:52:41.488Z,13.19
2023-03-31T09:55:31.963Z,13.26
2023-03-31T09:58:06.789Z,13.35
2023-03-31T10:00:34.629Z,13.44
2023-03-31T10:03:07.703Z,13.63
2023-03-31T10:05:41.171Z,13.58
2023-03-31T10:08:16.379Z,13.57
2023-03-31T10:10:52.813Z,13.75
2023-03-31T10:13:22.859Z,13.81
2023-03-31T10:15:53.437Z,13.80
2023-03-31T10:18:21.775Z,13.68
2023-03-31T10:20:52.766Z,13.65
2023-03-31T10:23:29.571Z,13.82
2023-03-31T10:25:56.567Z,13.89
2023-03-31T10:28:23.384Z,13.89
2023-03-31T10:30:53.969Z,13.77
2023-03-31T10:33:25.418Z,13.70
2023-03-31T10:35:57.678Z,13.54
2023-03-31T10:38:28.616Z,13.53
2023-03-31T10:40:57.922Z,13.57
2023-03-31T10:43:38.833Z,13.53
2023-03-31T10:46:05.931Z,13.55
2023-03-31T10:48:34.892Z,13.72
2023-03-31T10:51:19.543Z,14.04
2023-03-31T10:53:51.271Z,14.23
2023-03-31T10:56:32.037Z,14.52
2023-03-31T10:59:26.927Z,14.52
2023-03-31T11:02:48.440Z,14.40
2023-03-31T11:05:25.292Z,14.43
2023-03-31T11:08:22.399Z,14.48
2023-03-31T11:11:12.148Z,14.52
2023-03-31T11:13:51.270Z,14.57
2023-03-31T11:16:28.388Z,14.48
2023-03-31T11:19:05.872Z,14.35
2023-03-31T11:22:01.568Z,14.33
2023-03-31T11:24:42.634Z,14.60
2023-03-31T11:27:23.671Z,15.04
2023-03-31T11:30:06.317Z,15.28
2023-03-31T11:32:38.798Z,15.47
2023-03-31T11:38:19.672Z,15.33
2023-03-31T11:40:47.106Z,15.23
2023-03-31T11:43:24.609Z,15.03
2023-03-31T11:45:55.870Z,14.83
2023-03-31T11:48:42.095Z,14.93
2023-03-31T11:51:16.759Z,15.26
2023-03-31T11:53:46.897Z,15.44
2023-03-31T11:56:15.013Z,15.54
2023-03-31T11:58:49.397Z,15.30
2023-03-31T12:01:29.435Z,14.93
2023-03-31T12:04:02.009Z,13.26
2023-03-31T12:06:33.468Z,11.96
2023-03-31T12:09:18.376Z,11.25
2023-03-31T12:11:59.725Z,10.60
2023-03-31T12:14:40.195Z,10.15
2023-03-31T12:17:16.072Z,9.79
2023-03-31T12:19:48.534Z,9.85
2023-03-31T12:22:24.205Z,9.97
2023-03-31T12:24:52.415Z,9.99
2023-03-31T12:27:27.588Z,9.99
2023-03-31T12:30:27.845Z,10.02
2023-03-31T12:33:01.225Z,9.86
2023-03-31T12:35:50.988Z,10.03
2023-03-31T12:38:24.409Z,10.39
2023-03-31T12:41:00.017Z,10.49
2023-03-31T12:43:32.424Z,10.65
2023-03-31T12:46:20.806Z,10.77
2023-03-31T12:49:06.973Z,10.88
2023-03-31T12:51:56.294Z,11.05
2023-03-31T12:54:41.707Z,11.33
2023-03-31T12:57:08.155Z,11.73
2023-03-31T12:59:42.513Z,11.90
2023-03-31T13:02:15.365Z,11.99
2023-03-31T13:04:43.219Z,12.26
2023-03-31T13:07:29.887Z,12.84
2023-03-31T13:09:57.785Z,13.16
2023-03-31T13:12:28.142Z,13.49
2023-03-31T13:14:59.918Z,13.65
2023-03-31T13:17:35.862Z,13.81
2023-03-31T13:20:30.187Z,14.02
2023-03-31T13:23:19.691Z,14.15
2023-03-31T13:25:54.017Z,14.36
2023-03-31T13:28:23.639Z,14.31
2023-03-31T13:31:05.068Z,14.39
2023-03-31T13:33:40.165Z,14.57
2023-03-31T13:36:31.559Z,14.96
2023-03-31T13:39:16.743Z,15.11
2023-03-31T13:42:14.153Z,14.95
2023-03-31T13:45:14.749Z,14.71
2023-03-31T13:48:03.336Z,14.41
2023-03-31T13:50:45.922Z,14.30
2023-03-31T13:53:21.278Z,14.06
2023-03-31T13:56:09.151Z,13.90
2023-03-31T13:58:58.010Z,13.60
2023-03-31T14:01:50.041Z,13.34
2023-03-31T14:04:30.829Z,13.25
2023-03-31T14:07:02.406Z,13.20
2023-03-31T14:09:35.481Z,13.15
2023-03-31T14:12:19.411Z,13.17
2023-03-31T14:14:46.101Z,13.17
2023-03-31T14:17:13.035Z,13.14
2023-03-31T14:19:49.301Z,13.03
2023-03-31T14:22:31.496Z,12.86
2023-03-31T14:25:06.272Z,12.77
2023-03-31T14:27:47.676Z,12.61
2023-03-31T14:30:38.505Z,12.35
2023-03-31T14:33:17.104Z,11.90
2023-03-31T14:35:56.056Z,11.48
2023-03-31T14:38:23.640Z,11.01
2023-03-31T14:41:01.088Z,10.53
2023-03-31T14:43:33.446Z,10.18
2023-03-31T14:46:05.573Z,9.99
2023-03-31T14:48:34.227Z,9.92
2023-03-31T14:51:03.302Z,9.90
2023-03-31T14:53:29.951Z,9.87
2023-03-31T14:56:04.725Z,9.98
2023-03-31T14:58:37.494Z,10.07
2023-03-31T15:01:06.822Z,10.19
2023-03-31T15:03:37.411Z,10.32
2023-03-31T15:06:05.345Z,10.34
2023-03-31T15:08:32.966Z,10.28
2023-03-31T15:11:12.552Z,10.26
2023-03-31T15:14:01.096Z,10.28
2023-03-31T15:16:42.491Z,10.33
2023-03-31T15:19:15.484Z,10.37
2023-03-31T15:21:42.757Z,10.39
2023-03-31T15:24:15.364Z,10.39
2023-03-31T15:26:50.061Z,10.35
2023-03-31T15:29:29.618Z,10.36
2023-03-31T15:31:58.184Z,10.38
2023-03-31T15:34:33.570Z,10.47
2023-03-31T15:37:00.952Z,10.91
2023-03-31T15:39:33.297Z,11.33
2023-03-31T15:42:03.544Z,11.34
2023-03-31T15:44:36.027Z,11.28
2023-03-31T15:47:08.621Z,11.10
2023-03-31T15:49:35.543Z,11.09
2023-03-31T15:52:03.215Z,11.16
2023-03-31T15:54:38.110Z,11.24
2023-03-31T15:57:06.451Z,11.32
2023-03-31T15:59:55.963Z,11.31
2023-03-31T16:02:26.412Z,11.13
2023-03-31T16:04:58.752Z,11.02
2023-03-31T16:07:29.180Z,10.97
2023-03-31T16:10:19.244Z,10.89
2023-03-31T16:12:58.943Z,10.82
2023-03-31T16:15:34.657Z,10.73
2023-03-31T16:18:09.880Z,10.65
2023-03-31T16:20:43.845Z,10.55
2023-03-31T16:23:18.736Z,10.51
2023-03-31T16:25:46.138Z,10.51
2023-03-31T16:28:16.549Z,10.44
2023-03-31T16:30:44.944Z,10.37
2023-03-31T16:33:25.428Z,10.32
2023-03-31T16:35:56.464Z,10.24
2023-03-31T16:38:28.083Z,10.28
2023-03-31T16:40:56.576Z,10.23
2023-03-31T16:43:31.062Z,10.24
2023-03-31T16:45:59.494Z,10.23
2023-03-31T16:48:29.081Z,10.20
2023-03-31T16:50:57.765Z,10.20
2023-03-31T16:53:30.129Z,10.13
2023-03-31T16:55:57.611Z,10.16
2023-03-31T16:58:26.143Z,10.16
2023-03-31T17:00:53.411Z,10.16
2023-03-31T17:03:20.527Z,10.14
2023-03-31T17:05:50.806Z,10.11
2023-03-31T17:08:17.331Z,10.12
2023-03-31T17:10:53.901Z,10.12
2023-03-31T17:13:20.960Z,10.11
2023-03-31T17:15:47.667Z,10.10
2023-03-31T17:18:14.787Z,10.07
2023-03-31T17:20:41.361Z,10.09
2023-03-31T17:23:07.825Z,10.07
2023-03-31T17:25:36.059Z,10.06
2023-03-31T17:28:04.386Z,10.02
2023-03-31T17:30:32.429Z,10.01
2023-03-31T17:32:58.855Z,9.99
2023-03-31T17:35:25.802Z,9.96
2023-03-31T17:37:53.906Z,9.90
2023-03-31T17:40:21.448Z,9.92
2023-03-31T17:42:47.837Z,9.89
2023-03-31T17:45:14.376Z,9.83
2023-03-31T17:47:41.972Z,9.76
2023-03-31T17:50:09.061Z,9.66
2023-03-31T17:52:36.100Z,9.56
2023-03-31T17:55:04.186Z,9.47
2023-03-31T17:57:31.928Z,9.37
2023-03-31T17:59:58.567Z,9.28
2023-03-31T18:02:25.048Z,9.20
2023-03-31T18:04:52.274Z,9.15
2023-03-31T18:07:18.890Z,9.12
2023-03-31T18:09:45.402Z,9.06
2023-03-31T18:12:11.810Z,9.05
2023-03-31T18:14:38.315Z,9.00
2023-03-31T18:17:05.011Z,8.99
2023-03-31T18:19:31.897Z,8.98
2023-03-31T18:21:58.312Z,8.96
2023-03-31T18:24:25.844Z,8.98
2023-03-31T18:26:52.333Z,8.97
2023-03-31T18:29:18.741Z,8.94
2023-03-31T18:31:45.684Z,8.97
2023-03-31T18:34:13.488Z,8.96
2023-03-31T18:36:40.444Z,9.01
2023-03-31T18:39:07.137Z,9.00
2023-03-31T18:41:33.521Z,9.04
2023-03-31T18:44:00.376Z,9.04
2023-03-31T18:46:26.954Z,9.07
2023-03-31T18:48:53.414Z,9.05
2023-03-31T18:51:20.085Z,9.05
2023-03-31T18:53:46.663Z,9.07
2023-03-31T18:56:13.112Z,9.08
2023-03-31T18:58:39.641Z,9.08
2023-03-31T19:01:06.226Z,9.10
2023-03-31T19:03:32.842Z,9.12
2023-03-31T19:06:05.322Z,9.11
2023-03-31T19:08:32.318Z,9.12
2023-03-31T19:11:09.726Z,9.08
2023-03-31T19:13:36.223Z,9.12
2023-03-31T19:16:02.898Z,9.12
2023-03-31T19:18:29.808Z,9.10
2023-03-31T19:20:58.456Z,9.11
2023-03-31T19:23:25.226Z,9.08
2023-03-31T19:25:53.661Z,9.07
2023-03-31T19:28:22.145Z,9.08
2023-03-31T19:30:49.892Z,9.07
2023-03-31T19:33:16.756Z,9.04
2023-03-31T19:35:45.763Z,9.02
2023-03-31T19:38:13.169Z,9.00
2023-03-31T19:40:41.327Z,8.98
2023-03-31T19:43:19.136Z,8.99
2023-03-31T19:45:46.417Z,8.99
2023-03-31T19:48:13.063Z,8.99
2023-03-31T19:50:39.481Z,8.98
2023-03-31T19:53:06.143Z,8.96
2023-03-31T19:55:34.225Z,8.92
2023-03-31T19:58:00.802Z,8.92
2023-03-31T20:00:27.212Z,8.89
2023-03-31T20:02:53.746Z,8.88
2023-03-31T20:05:20.315Z,8.88
2023-03-31T20:07:46.750Z,8.87
2023-03-31T20:10:13.927Z,8.88
2023-03-31T20:12:40.355Z,8.85
2023-03-31T20:15:07.077Z,8.87
2023-03-31T20:17:33.486Z,8.88
2023-03-31T20:20:01.676Z,8.88
2023-03-31T20:22:28.180Z,8.90
2023-03-31T20:24:54.588Z,8.92
2023-03-31T20:27:25.970Z,8.93
2023-03-31T20:29:52.598Z,8.95
2023-03-31T20:32:19.051Z,8.92
2023-03-31T20:34:45.465Z,8.93
2023-03-31T20:37:12.196Z,8.93
2023-03-31T20:39:38.646Z,8.91
2023-03-31T20:42:06.224Z,8.92
2023-03-31T20:44:32.741Z,8.93
2023-03-31T20:47:00.443Z,8.92
2023-03-31T20:49:27.144Z,8.88
2023-03-31T20:51:53.557Z,8.91
2023-03-31T20:54:19.984Z,8.89
2023-03-31T20:56:47.107Z,8.87
2023-03-31T20:59:15.191Z,8.80
2023-03-31T21:01:42.830Z,8.82
2023-03-31T21:04:11.014Z,8.78
2023-03-31T21:06:43.249Z,8.77
2023-03-31T21:09:11.454Z,8.72
2023-03-31T21:11:39.950Z,8.70
2023-03-31T21:14:07.286Z,8.64
2023-03-31T21:16:33.904Z,8.65
2023-03-31T21:19:00.384Z,8.60
2023-03-31T21:21:27.776Z,8.55
2023-03-31T21:23:54.582Z,8.53
2023-03-31T21:26:21.953Z,8.50
2023-03-31T21:28:54.014Z,8.48
2023-03-31T21:31:24.124Z,8.44
2023-03-31T21:33:52.135Z,8.42
2023-03-31T21:36:22.558Z,8.39
2023-03-31T21:38:51.950Z,8.39
2023-03-31T21:41:22.578Z,8.38
2023-03-31T21:43:49.816Z,8.34
2023-03-31T21:46:24.459Z,8.29
2023-03-31T21:48:50.892Z,8.31
2023-03-31T21:51:19.943Z,8.29
2023-03-31T21:53:47.176Z,8.28
2023-03-31T21:56:13.734Z,8.29
2023-03-31T21:58:40.392Z,8.32
2023-03-31T22:01:07.660Z,8.21
2023-03-31T22:03:34.820Z,8.27
2023-03-31T22:06:03.344Z,8.22
2023-03-31T22:08:31.394Z,8.28
2023-03-31T22:11:00.036Z,8.25
2023-03-31T22:13:26.775Z,8.23
2023-03-31T22:15:53.594Z,8.20
2023-03-31T22:18:20.102Z,8.19
2023-03-31T22:20:46.832Z,8.17
2023-03-31T22:23:13.762Z,8.13
2023-03-31T22:25:40.410Z,8.11
2023-03-31T22:28:07.697Z,8.12
2023-03-31T22:30:34.955Z,8.10
2023-03-31T22:33:01.902Z,8.12
2023-03-31T22:35:28.621Z,8.10
2023-03-31T22:37:55.143Z,8.10
2023-03-31T22:40:21.647Z,8.09
2023-03-31T22:42:48.063Z,8.05
2023-03-31T22:45:14.515Z,8.00
2023-03-31T22:47:42.272Z,7.99
2023-03-31T22:50:10.261Z,7.96
2023-03-31T22:52:36.890Z,7.97
2023-03-31T22:55:03.840Z,7.95
2023-03-31T22:57:30.688Z,7.95
2023-03-31T22:59:57.261Z,7.96
2023-03-31T23:02:23.684Z,7.95
2023-03-31T23:04:50.275Z,7.96
2023-03-31T23:07:16.876Z,7.99
2023-03-31T23:09:43.299Z,8.02
2023-03-31T23:12:09.717Z,8.02
2023-03-31T23:14:36.186Z,8.01
2023-03-31T23:17:02.597Z,8.00
2023-03-31T23:19:29.056Z,7.99
2023-03-31T23:21:55.685Z,7.95
2023-03-31T23:24:22.921Z,7.92
2023-03-31T23:26:49.323Z,7.91
2023-03-31T23:29:15.887Z,7.86
2023-03-31T23:31:42.303Z,7.85
2023-03-31T23:34:10.112Z,7.82
2023-03-31T23:36:36.538Z,7.78
2023-03-31T23:39:03.120Z,7.74
2023-03-31T23:41:29.905Z,7.71
2023-03-31T23:43:57.589Z,7.66
2023-03-31T23:46:26.000Z,7.65
2023-03-31T23:48:53.486Z,7.63
2023-03-31T23:51:19.992Z,7.65
2023-03-31T23:53:46.533Z,7.67
2023-03-31T23:56:13.589Z,7.69
2023-03-31T23:58:42.787Z,7.67
